Portada
METAR-TAF:

METAR-TAF

Aeropuertos :

Castres, Francia

latitud: 43-33-25N, longitud: 2-17-21E, altitud: 239 m

Observación

El informe se hizo hace 36 minutos, a las 22:30 UTC
Viento 10 kt del este-sureste
Temperatura 9°C
Humedad 93%
Presión 1017 hPa
Visibilidad 10 km o más
sin nubes por debajo de 1500 m y sin presencia de cumulonimbus.

METAR: LFCK 152230Z AUTO 12010KT CAVOK 09/08 Q1017 BECMG 4000 -RADZ OVC010

Hora: 00:06 (23:06 UTC)

Pronóstico

El informe se hizo hace 6 horas y 6 minutos, a las 17:00 UTC
Pronóstico válido del 15 a las 18 UTC al 16 a las 03 UTC
Viento 6 kt del sureste
Visibilidad 10 km o más
Cielo nuboso a una altura de 3000 ft
Cielo cubierto a una altura de 6000 ft
Evolucionando progresivamente
del 16 a las 00 UTC al 16 a las 03 UTC
Visibilidad: 4000 m
Cielo cubierto a una altura de 1000 ft
lluvia ligera, llovizna

TAF: LFCK 151700Z 1518/1603 14006KT 9999 BKN030 OVC060 BECMG 1600/1603 4000 -RADZ OVC010

Observaciones y pronósticos meteorológicos de más de 4000 aeropuertos (mensajes METAR y TAF).

Los puntos amarillos y rojos representan las estaciones disponibles.

Ponga el ratón en el punto deseado para ver el nombre de la estación.

Haga clic para ver las observaciones y los pronósticos meteorológicos.

Para cambiar el mapa : haga clic en los botones verdes con una cruz de color negro para hacer un zoom, en el botón verde con un guión para alejar o en las flechas verdes para mapas adyacentes.


METAR-TAF: